createdAt,value
2018-01-24T00:01:02.243Z,6.55
2018-01-24T00:02:08.476Z,6.55
2018-01-24T00:03:14.416Z,6.57
2018-01-24T00:04:21.495Z,6.58
2018-01-24T00:05:28.615Z,6.56
2018-01-24T00:06:34.752Z,6.61
2018-01-24T00:07:40.951Z,6.67
2018-01-24T00:08:46.871Z,6.68
2018-01-24T00:09:53.119Z,6.67
2018-01-24T00:10:59.036Z,6.67
2018-01-24T00:12:05.083Z,6.64
2018-01-24T00:13:11.206Z,6.67
2018-01-24T00:14:17.400Z,6.68
2018-01-24T00:15:27.484Z,6.63
2018-01-24T00:16:33.912Z,6.68
2018-01-24T00:17:40.179Z,6.75
2018-01-24T00:18:46.187Z,6.79
2018-01-24T00:19:53.087Z,6.76
2018-01-24T00:20:59.211Z,6.78
2018-01-24T00:22:05.402Z,6.76
2018-01-24T00:23:11.296Z,6.71
2018-01-24T00:24:18.108Z,6.73
2018-01-24T00:25:24.277Z,6.70
2018-01-24T00:26:30.078Z,6.70
2018-01-24T00:27:36.302Z,6.82
2018-01-24T00:28:42.275Z,6.87
2018-01-24T00:29:48.412Z,6.91
2018-01-24T00:30:54.592Z,6.87
2018-01-24T00:32:00.778Z,6.82
2018-01-24T00:33:06.985Z,6.81
2018-01-24T00:34:13.246Z,6.76
2018-01-24T00:35:19.377Z,6.77
2018-01-24T00:36:27.533Z,6.86
2018-01-24T00:37:33.425Z,6.90
2018-01-24T00:38:41.393Z,6.92
2018-01-24T00:39:47.598Z,6.90
2018-01-24T00:40:53.416Z,6.92
2018-01-24T00:41:59.616Z,6.90
2018-01-24T00:43:05.729Z,6.90
2018-01-24T00:44:12.781Z,6.92
2018-01-24T00:45:18.894Z,6.94
2018-01-24T00:46:25.341Z,6.95
2018-01-24T00:47:31.559Z,6.90
2018-01-24T00:48:37.737Z,6.92
2018-01-24T00:49:43.991Z,6.90
2018-01-24T00:50:50.165Z,6.88
2018-01-24T00:52:01.347Z,6.96
2018-01-24T00:53:08.394Z,7.03
2018-01-24T00:54:14.535Z,7.06
2018-01-24T00:55:21.583Z,7.06
2018-01-24T00:56:27.718Z,7.09
2018-01-24T00:57:33.881Z,7.07
2018-01-24T00:58:40.050Z,7.07
2018-01-24T00:59:47.110Z,7.03
2018-01-24T01:00:53.300Z,7.03
2018-01-24T01:01:59.457Z,7.06
2018-01-24T01:03:07.047Z,7.11
2018-01-24T01:04:13.188Z,7.13
2018-01-24T01:05:19.270Z,7.18
2018-01-24T01:06:25.437Z,7.16
2018-01-24T01:07:31.575Z,7.25
2018-01-24T01:08:37.777Z,7.23
2018-01-24T01:09:43.921Z,7.20
2018-01-24T01:10:50.090Z,7.23
2018-01-24T01:11:56.263Z,7.20
2018-01-24T01:13:02.375Z,7.12
2018-01-24T01:14:08.418Z,7.18
2018-01-24T01:15:14.582Z,7.20
2018-01-24T01:16:20.849Z,7.17
2018-01-24T01:17:26.997Z,7.15
2018-01-24T01:18:33.231Z,7.18
2018-01-24T01:19:39.500Z,7.13
2018-01-24T01:20:45.721Z,7.13
2018-01-24T01:21:52.069Z,7.23
2018-01-24T01:22:58.169Z,7.18
2018-01-24T01:24:04.309Z,7.15
2018-01-24T01:25:10.112Z,7.16
2018-01-24T01:26:16.246Z,7.17
2018-01-24T01:27:22.450Z,7.14
2018-01-24T01:28:28.560Z,7.21
2018-01-24T01:29:34.750Z,7.30
2018-01-24T01:30:41.012Z,7.34
2018-01-24T01:31:47.882Z,7.37
2018-01-24T01:32:54.016Z,7.32
2018-01-24T01:34:00.174Z,7.34
2018-01-24T01:35:06.321Z,7.34
2018-01-24T01:36:12.488Z,7.30
2018-01-24T01:37:18.653Z,7.25
2018-01-24T01:38:24.775Z,7.27
2018-01-24T01:39:30.928Z,7.32
2018-01-24T01:40:37.052Z,7.32
2018-01-24T01:41:43.168Z,7.30
2018-01-24T01:42:49.200Z,7.33
2018-01-24T01:43:55.267Z,7.30
2018-01-24T01:45:01.417Z,7.32
2018-01-24T01:46:07.610Z,7.36
2018-01-24T01:47:13.649Z,7.34
2018-01-24T01:48:31.025Z,7.36
2018-01-24T01:49:37.024Z,7.41
2018-01-24T01:50:43.021Z,7.47
2018-01-24T01:51:48.984Z,7.49
2018-01-24T01:52:54.979Z,7.37
2018-01-24T01:54:00.888Z,7.36
2018-01-24T01:55:06.900Z,7.31
2018-01-24T01:56:13.050Z,7.30
2018-01-24T01:57:18.983Z,7.33
2018-01-24T01:58:25.161Z,7.37
2018-01-24T01:59:31.148Z,7.31
2018-01-24T02:00:37.300Z,7.19
2018-01-24T02:01:48.394Z,7.20
2018-01-24T02:02:54.522Z,7.24
2018-01-24T02:04:00.678Z,7.26
2018-01-24T02:05:06.808Z,7.17
2018-01-24T02:06:13.010Z,7.18
2018-01-24T02:07:19.239Z,7.20
2018-01-24T02:08:25.359Z,7.20
2018-01-24T02:09:31.547Z,7.24
2018-01-24T02:10:37.713Z,7.30
2018-01-24T02:11:43.938Z,7.24
2018-01-24T02:12:50.178Z,7.13
2018-01-24T02:13:56.299Z,7.14
2018-01-24T02:15:02.427Z,7.14
2018-01-24T02:16:08.229Z,7.16
2018-01-24T02:17:13.833Z,7.18
2018-01-24T02:18:19.768Z,7.16
2018-01-24T02:19:25.683Z,7.19
2018-01-24T02:20:31.709Z,7.21
2018-01-24T02:21:37.888Z,7.20
2018-01-24T02:22:44.110Z,7.23
2018-01-24T02:23:50.066Z,7.15
2018-01-24T02:24:56.075Z,7.16
2018-01-24T02:26:02.438Z,7.17
2018-01-24T02:27:08.405Z,7.11
2018-01-24T02:28:14.461Z,7.05
2018-01-24T02:29:20.595Z,7.04
2018-01-24T02:30:26.759Z,7.01
2018-01-24T02:31:32.993Z,7.04
2018-01-24T02:32:39.122Z,7.04
2018-01-24T02:33:45.283Z,6.97
2018-01-24T02:34:51.679Z,7.09
2018-01-24T02:35:57.871Z,7.09
2018-01-24T02:37:09.159Z,7.10
2018-01-24T02:40:05.295Z,7.04
2018-01-24T02:41:11.406Z,7.09
2018-01-24T02:42:17.563Z,7.11
2018-01-24T02:43:23.672Z,7.13
2018-01-24T02:44:29.805Z,7.11
2018-01-24T02:45:36.222Z,7.16
2018-01-24T02:46:42.375Z,7.15
2018-01-24T02:47:48.531Z,7.21
2018-01-24T02:48:54.743Z,7.25
2018-01-24T02:50:01.765Z,7.24
2018-01-24T02:51:07.914Z,7.25
2018-01-24T02:52:14.124Z,7.27
2018-01-24T02:53:20.544Z,7.29
2018-01-24T02:54:26.650Z,7.24
2018-01-24T02:55:32.750Z,7.28
2018-01-24T02:56:38.953Z,7.27
2018-01-24T02:57:47.218Z,7.28
2018-01-24T02:58:53.329Z,7.27
2018-01-24T02:59:59.430Z,7.28
2018-01-24T03:01:05.527Z,7.29
2018-01-24T03:02:11.282Z,7.35
2018-01-24T03:03:18.519Z,7.30
2018-01-24T03:04:24.409Z,7.31
2018-01-24T03:05:30.521Z,7.37
2018-01-24T03:06:36.681Z,7.33
2018-01-24T03:07:42.785Z,7.24
2018-01-24T03:08:48.968Z,7.26
2018-01-24T03:09:55.092Z,7.18
2018-01-24T03:11:01.265Z,7.17
2018-01-24T03:12:12.903Z,7.24
2018-01-24T03:13:19.000Z,7.29
2018-01-24T03:14:25.179Z,7.27
2018-01-24T03:15:31.328Z,7.28
2018-01-24T03:16:37.445Z,7.33
2018-01-24T03:17:43.548Z,7.29
2018-01-24T03:18:49.712Z,7.21
2018-01-24T03:19:55.816Z,7.27
2018-01-24T03:21:01.976Z,7.31
2018-01-24T03:22:08.077Z,7.28
2018-01-24T03:23:14.177Z,7.23
2018-01-24T03:24:23.416Z,7.23
2018-01-24T03:25:29.609Z,7.24
2018-01-24T03:26:35.743Z,7.27
2018-01-24T03:27:41.681Z,7.26
2018-01-24T03:28:47.864Z,7.30
2018-01-24T03:29:53.967Z,7.33
2018-01-24T03:31:00.349Z,7.34
2018-01-24T03:32:06.501Z,7.36
2018-01-24T03:33:12.650Z,7.34
2018-01-24T03:34:18.829Z,7.37
2018-01-24T03:35:24.961Z,7.38
2018-01-24T03:36:31.070Z,7.41
2018-01-24T03:37:37.188Z,7.47
2018-01-24T03:38:43.412Z,7.49
2018-01-24T03:39:49.569Z,7.46
2018-01-24T03:40:55.785Z,7.45
2018-01-24T03:42:01.926Z,7.46
2018-01-24T03:43:08.123Z,7.43
2018-01-24T03:44:14.247Z,7.44
2018-01-24T03:45:20.399Z,7.44
2018-01-24T03:46:27.503Z,7.42
2018-01-24T03:47:33.613Z,7.44
2018-01-24T03:48:39.799Z,7.47
2018-01-24T03:49:45.934Z,7.51
2018-01-24T03:50:52.057Z,7.52
2018-01-24T03:51:58.152Z,7.57
2018-01-24T03:53:04.287Z,7.62
2018-01-24T03:54:10.477Z,7.63
2018-01-24T03:55:16.576Z,7.60
2018-01-24T03:56:22.815Z,7.60
2018-01-24T03:57:28.632Z,7.59
2018-01-24T03:58:34.780Z,7.66
2018-01-24T03:59:40.882Z,7.70
2018-01-24T04:00:46.976Z,7.69
2018-01-24T04:01:53.160Z,7.69
2018-01-24T04:02:59.347Z,7.68
2018-01-24T04:04:05.456Z,7.71
2018-01-24T04:05:11.336Z,7.70
2018-01-24T04:06:17.482Z,7.65
2018-01-24T04:07:23.820Z,7.64
2018-01-24T04:08:29.571Z,7.67
2018-01-24T04:09:36.098Z,7.65
2018-01-24T04:10:42.209Z,7.65
2018-01-24T04:11:48.033Z,7.59
2018-01-24T04:12:54.199Z,7.51
2018-01-24T04:14:00.320Z,7.56
2018-01-24T04:15:06.428Z,7.60
2018-01-24T04:16:12.637Z,7.61
2018-01-24T04:17:18.773Z,7.57
2018-01-24T04:18:24.945Z,7.59
2018-01-24T04:19:31.106Z,7.54
2018-01-24T04:20:39.367Z,7.51
2018-01-24T04:21:45.628Z,7.50
2018-01-24T04:22:51.895Z,7.51
2018-01-24T04:23:58.128Z,7.46
2018-01-24T04:25:04.212Z,7.48
2018-01-24T04:26:10.356Z,7.46
2018-01-24T04:27:16.495Z,7.49
2018-01-24T04:28:22.655Z,7.44
2018-01-24T04:29:28.825Z,7.45
2018-01-24T04:30:34.940Z,7.44
2018-01-24T04:31:41.054Z,7.40
2018-01-24T04:32:47.263Z,7.46
2018-01-24T04:33:53.383Z,7.50
2018-01-24T04:34:59.687Z,7.54
2018-01-24T04:36:05.787Z,7.52
2018-01-24T04:37:11.601Z,7.52
2018-01-24T04:38:17.850Z,7.51
2018-01-24T04:39:23.973Z,7.54
2018-01-24T04:40:30.076Z,7.50
2018-01-24T04:41:36.324Z,7.48
2018-01-24T04:42:44.002Z,7.49
2018-01-24T04:43:50.144Z,7.48
2018-01-24T04:44:56.186Z,7.45
2018-01-24T04:46:02.316Z,7.47
2018-01-24T04:47:08.496Z,7.43
2018-01-24T04:48:14.613Z,7.45
2018-01-24T04:49:20.839Z,7.41
2018-01-24T04:50:26.779Z,7.44
2018-01-24T04:51:33.578Z,7.51
2018-01-24T04:52:39.788Z,7.48
2018-01-24T04:53:45.901Z,7.41
2018-01-24T04:54:52.038Z,7.40
2018-01-24T04:55:58.204Z,7.37
2018-01-24T04:57:04.305Z,7.40
2018-01-24T04:58:10.419Z,7.47
2018-01-24T04:59:16.308Z,7.37
2018-01-24T05:00:22.232Z,7.41
2018-01-24T05:01:27.939Z,7.38
2018-01-24T05:02:33.868Z,7.33
2018-01-24T05:03:40.852Z,7.39
2018-01-24T05:04:46.764Z,7.42
2018-01-24T05:05:52.940Z,7.45
2018-01-24T05:07:02.787Z,7.41
2018-01-24T05:08:08.797Z,7.45
2018-01-24T05:09:14.713Z,7.48
2018-01-24T05:10:20.673Z,7.46
2018-01-24T05:11:26.673Z,7.50
2018-01-24T05:12:32.654Z,7.44
2018-01-24T05:13:38.672Z,7.51
2018-01-24T05:14:44.644Z,7.45
2018-01-24T05:15:50.708Z,7.48
2018-01-24T05:16:57.668Z,7.43
2018-01-24T05:18:03.818Z,7.42
2018-01-24T05:19:10.023Z,7.40
2018-01-24T05:20:16.317Z,7.45
2018-01-24T05:21:22.300Z,7.47
2018-01-24T05:22:28.287Z,7.49
2018-01-24T05:23:34.951Z,7.42
2018-01-24T05:24:41.179Z,7.40
2018-01-24T05:25:47.432Z,7.34
2018-01-24T05:26:53.578Z,7.33
2018-01-24T05:27:59.739Z,7.30
2018-01-24T05:29:10.573Z,7.36
2018-01-24T05:30:17.522Z,7.33
2018-01-24T05:31:23.692Z,7.41
2018-01-24T05:32:29.969Z,7.39
2018-01-24T05:33:37.096Z,7.36
2018-01-24T05:34:43.264Z,7.36
2018-01-24T05:35:49.951Z,7.38
2018-01-24T05:36:56.217Z,7.38
2018-01-24T05:38:02.328Z,7.37
2018-01-24T05:39:08.455Z,7.34
2018-01-24T05:40:14.683Z,7.34
2018-01-24T05:41:20.886Z,7.37
2018-01-24T05:42:27.067Z,7.41
2018-01-24T05:43:33.419Z,7.38
2018-01-24T05:44:39.573Z,7.39
2018-01-24T05:45:45.731Z,7.40
2018-01-24T05:46:51.836Z,7.47
2018-01-24T05:47:58.001Z,7.47
2018-01-24T05:49:04.323Z,7.53
2018-01-24T05:50:10.689Z,7.50
2018-01-24T05:51:16.853Z,7.54
2018-01-24T05:52:23.010Z,7.57
2018-01-24T05:53:29.100Z,7.62
2018-01-24T05:54:35.437Z,7.61
2018-01-24T05:55:41.542Z,7.64
2018-01-24T05:56:47.630Z,7.61
2018-01-24T05:57:53.791Z,7.63
2018-01-24T05:58:59.940Z,7.68
2018-01-24T06:00:05.931Z,7.59
2018-01-24T06:01:12.100Z,7.60
2018-01-24T06:02:18.287Z,7.59
2018-01-24T06:03:24.504Z,7.65
2018-01-24T06:04:30.632Z,7.68
2018-01-24T06:05:36.803Z,7.78
2018-01-24T06:06:42.954Z,7.84
2018-01-24T06:07:49.354Z,7.82
2018-01-24T06:08:55.337Z,7.83
2018-01-24T06:10:02.132Z,7.90
2018-01-24T06:11:08.379Z,7.88
2018-01-24T06:12:14.499Z,7.95
2018-01-24T06:13:20.975Z,7.96
2018-01-24T06:14:27.102Z,7.94
2018-01-24T06:15:33.231Z,7.92
2018-01-24T06:16:39.336Z,7.94
2018-01-24T06:17:46.060Z,8.00
2018-01-24T06:18:54.824Z,8.09
2018-01-24T06:20:02.898Z,8.15
2018-01-24T06:21:10.845Z,8.14
2018-01-24T06:22:20.374Z,8.00
2018-01-24T06:23:28.430Z,7.91
2018-01-24T06:24:36.021Z,7.92
2018-01-24T06:25:43.137Z,7.94
2018-01-24T06:26:50.345Z,7.91
2018-01-24T06:27:56.797Z,7.88
2018-01-24T06:29:02.939Z,7.91
2018-01-24T06:30:08.726Z,7.95
2018-01-24T06:31:14.874Z,7.91
2018-01-24T06:32:21.036Z,7.90
2018-01-24T06:33:27.180Z,7.95
2018-01-24T06:34:33.326Z,7.97
2018-01-24T06:35:39.245Z,7.96
2018-01-24T06:36:45.407Z,7.94
2018-01-24T06:37:51.555Z,7.96
2018-01-24T06:38:57.580Z,7.96
2018-01-24T06:40:03.694Z,7.96
2018-01-24T06:41:09.681Z,7.97
2018-01-24T06:42:15.844Z,7.95
2018-01-24T06:43:22.063Z,7.99
2018-01-24T06:44:28.177Z,8.04
2018-01-24T06:45:34.399Z,8.06
2018-01-24T06:46:40.808Z,8.10
2018-01-24T06:47:47.079Z,8.11
2018-01-24T06:48:53.515Z,8.09
2018-01-24T06:49:59.987Z,8.06
2018-01-24T06:51:06.944Z,8.04
2018-01-24T06:52:13.186Z,8.03
2018-01-24T06:53:19.364Z,8.03
2018-01-24T06:54:25.884Z,8.04
2018-01-24T06:55:32.269Z,8.11
2018-01-24T06:56:38.576Z,8.06
2018-01-24T06:57:45.008Z,8.08
2018-01-24T06:58:51.244Z,8.11
2018-01-24T06:59:57.486Z,8.10
2018-01-24T07:01:03.779Z,8.13
2018-01-24T07:02:09.971Z,8.16
2018-01-24T07:03:16.400Z,8.17
2018-01-24T07:04:23.712Z,8.16
2018-01-24T07:05:32.048Z,8.16
2018-01-24T07:06:39.161Z,8.15
2018-01-24T07:07:45.330Z,8.22
2018-01-24T07:08:52.015Z,8.26
2018-01-24T07:09:58.703Z,8.35
2018-01-24T07:11:04.883Z,8.32
2018-01-24T07:12:22.132Z,8.32
2018-01-24T07:13:39.115Z,8.27
2018-01-24T07:14:45.433Z,8.26
2018-01-24T07:15:51.879Z,8.25
2018-01-24T07:16:58.183Z,8.19
2018-01-24T07:18:04.572Z,8.17
2018-01-24T07:19:10.900Z,8.18
2018-01-24T07:20:17.441Z,8.23
2018-01-24T07:21:23.762Z,8.23
2018-01-24T07:22:30.291Z,8.27
2018-01-24T07:23:36.636Z,8.33
2018-01-24T07:24:42.883Z,8.31
2018-01-24T07:25:49.170Z,8.23
2018-01-24T07:26:55.792Z,8.18
2018-01-24T07:28:02.307Z,8.17
2018-01-24T07:29:08.478Z,8.17
2018-01-24T07:30:14.584Z,8.10
2018-01-24T07:31:21.481Z,8.11
2018-01-24T07:32:27.878Z,8.12
2018-01-24T07:33:34.479Z,8.14
2018-01-24T07:34:40.961Z,8.14
2018-01-24T07:35:47.229Z,8.13
2018-01-24T07:36:53.585Z,8.18
2018-01-24T07:38:00.162Z,8.15
2018-01-24T07:39:07.058Z,8.15
2018-01-24T07:40:13.201Z,8.15
2018-01-24T07:41:20.132Z,8.23
2018-01-24T07:42:26.488Z,8.15
2018-01-24T07:43:32.696Z,8.16
2018-01-24T07:44:39.108Z,8.21
2018-01-24T07:45:45.292Z,8.17
2018-01-24T07:46:51.739Z,8.21
2018-01-24T07:47:58.791Z,8.20
2018-01-24T07:49:05.209Z,8.25
2018-01-24T07:50:11.537Z,8.30
2018-01-24T07:51:17.660Z,8.24
2018-01-24T07:52:24.055Z,8.23
2018-01-24T07:53:31.837Z,8.26
2018-01-24T07:54:38.625Z,8.24
2018-01-24T07:55:45.471Z,8.30
2018-01-24T07:56:52.507Z,8.30
2018-01-24T07:57:58.798Z,8.34
2018-01-24T07:59:05.464Z,8.40
2018-01-24T08:00:12.640Z,8.42
2018-01-24T08:01:18.930Z,8.45
2018-01-24T08:02:25.188Z,8.44
2018-01-24T08:03:31.324Z,8.51
2018-01-24T08:04:37.631Z,8.48
2018-01-24T08:05:43.973Z,8.48
2018-01-24T08:06:50.405Z,8.48
2018-01-24T08:07:56.588Z,8.47
2018-01-24T08:09:03.116Z,8.42
2018-01-24T08:10:08.936Z,8.48
2018-01-24T08:11:15.135Z,8.48
2018-01-24T08:12:26.521Z,8.47
2018-01-24T08:13:32.657Z,8.51
2018-01-24T08:14:39.810Z,8.54
2018-01-24T08:15:47.709Z,8.55
2018-01-24T08:16:53.939Z,8.55
2018-01-24T08:18:00.102Z,8.57
2018-01-24T08:19:05.826Z,8.52
2018-01-24T08:20:12.098Z,8.48
2018-01-24T08:21:18.205Z,8.48
2018-01-24T08:22:24.332Z,8.46
2018-01-24T08:23:30.666Z,8.46
2018-01-24T08:24:36.800Z,8.47
2018-01-24T08:25:42.931Z,8.52
2018-01-24T08:26:49.056Z,8.52
2018-01-24T08:27:55.273Z,8.48
2018-01-24T08:29:01.380Z,8.48
2018-01-24T08:30:07.955Z,8.52
2018-01-24T08:31:15.698Z,8.54
2018-01-24T08:32:21.880Z,8.53
2018-01-24T08:33:28.052Z,8.59
2018-01-24T08:34:34.180Z,8.62
2018-01-24T08:35:41.316Z,8.59
2018-01-24T08:36:47.507Z,8.56
2018-01-24T08:37:53.684Z,8.60
2018-01-24T08:38:59.813Z,8.60
2018-01-24T08:40:06.002Z,8.62
2018-01-24T08:41:12.249Z,8.65
2018-01-24T08:42:18.034Z,8.64
2018-01-24T08:43:24.156Z,8.64
2018-01-24T08:44:30.316Z,8.64
2018-01-24T08:45:36.435Z,8.63
2018-01-24T08:46:42.593Z,8.71
2018-01-24T08:47:48.748Z,8.72
2018-01-24T08:48:54.882Z,8.75
2018-01-24T08:50:01.057Z,8.80
2018-01-24T08:51:07.315Z,8.88
2018-01-24T08:52:13.517Z,8.87
2018-01-24T08:53:20.274Z,8.90
2018-01-24T08:54:27.893Z,8.85
2018-01-24T08:55:34.478Z,8.80
2018-01-24T08:56:40.924Z,8.84
2018-01-24T08:57:47.107Z,8.88
2018-01-24T08:58:54.301Z,8.87
2018-01-24T09:00:18.263Z,8.84
2018-01-24T09:01:47.176Z,8.86
2018-01-24T09:03:15.723Z,8.80
2018-01-24T09:04:44.319Z,8.71
2018-01-24T09:06:12.890Z,8.75
2018-01-24T09:07:41.160Z,8.75
2018-01-24T09:09:09.953Z,8.82
2018-01-24T09:10:38.306Z,8.90
2018-01-24T09:12:06.739Z,8.89
2018-01-24T09:13:35.220Z,8.94
2018-01-24T09:15:03.827Z,9.04
2018-01-24T09:16:32.439Z,8.91
2018-01-24T09:18:00.807Z,8.96
2018-01-24T09:19:29.072Z,8.94
2018-01-24T09:20:57.819Z,9.05
2018-01-24T09:22:26.316Z,9.11
2018-01-24T09:23:50.825Z,9.10
2018-01-24T09:25:00.666Z,9.11
2018-01-24T09:26:07.420Z,9.11
2018-01-24T09:27:13.758Z,9.14
2018-01-24T09:28:20.101Z,9.20
2018-01-24T09:29:26.442Z,9.28
2018-01-24T09:30:32.664Z,9.27
2018-01-24T09:31:39.431Z,9.29
2018-01-24T09:32:45.646Z,9.33
2018-01-24T09:33:51.842Z,9.21
2018-01-24T09:34:58.034Z,9.22
2018-01-24T09:36:04.665Z,9.24
2018-01-24T09:37:11.442Z,9.37
2018-01-24T09:38:17.835Z,9.43
2018-01-24T09:39:24.207Z,9.50
2018-01-24T09:40:30.612Z,9.47
2018-01-24T09:41:37.457Z,9.46
2018-01-24T09:42:43.812Z,9.55
2018-01-24T09:43:50.185Z,9.53
2018-01-24T09:44:56.648Z,9.52
2018-01-24T09:46:02.843Z,9.52
2018-01-24T09:47:09.155Z,9.58
2018-01-24T09:48:15.379Z,9.54
2018-01-24T09:49:21.708Z,9.60
2018-01-24T09:50:27.997Z,9.56
2018-01-24T09:51:34.193Z,9.60
2018-01-24T09:52:40.702Z,9.69
2018-01-24T09:53:46.969Z,9.74
2018-01-24T09:54:54.068Z,9.82
2018-01-24T09:56:00.184Z,9.86
2018-01-24T09:57:06.315Z,9.84
2018-01-24T09:58:15.184Z,9.79
2018-01-24T09:59:21.330Z,9.83
2018-01-24T10:00:27.511Z,9.78
2018-01-24T10:01:33.696Z,9.81
2018-01-24T10:02:40.778Z,9.78
2018-01-24T10:03:49.966Z,9.83
2018-01-24T10:04:56.123Z,9.74
2018-01-24T10:06:02.283Z,9.77
2018-01-24T10:07:08.452Z,9.73
2018-01-24T10:08:14.695Z,9.65
2018-01-24T10:09:22.260Z,9.62
2018-01-24T10:10:28.476Z,9.72
2018-01-24T10:11:34.624Z,9.67
2018-01-24T10:12:41.652Z,9.63
2018-01-24T10:13:47.840Z,9.65
2018-01-24T10:14:54.112Z,9.70
2018-01-24T10:16:01.391Z,9.63
2018-01-24T10:17:07.631Z,9.69
2018-01-24T10:18:13.804Z,9.71
2018-01-24T10:19:20.015Z,9.67
2018-01-24T10:20:26.185Z,9.73
2018-01-24T10:21:32.314Z,9.75
2018-01-24T10:22:39.333Z,9.72
2018-01-24T10:23:46.250Z,9.74
2018-01-24T10:24:53.209Z,9.78
2018-01-24T10:26:00.649Z,9.62
2018-01-24T10:27:08.418Z,9.63
2018-01-24T10:28:15.382Z,9.66
2018-01-24T10:29:23.058Z,9.67
2018-01-24T10:30:30.321Z,9.67
2018-01-24T10:31:37.715Z,9.72
2018-01-24T10:32:45.868Z,9.74
2018-01-24T10:33:52.918Z,9.78
2018-01-24T10:35:00.510Z,9.74
2018-01-24T10:36:06.779Z,9.71
2018-01-24T10:37:13.163Z,9.71
2018-01-24T10:38:19.368Z,9.74
2018-01-24T10:39:25.571Z,9.79
2018-01-24T10:40:31.789Z,9.70
2018-01-24T10:41:38.022Z,9.70
2018-01-24T10:42:44.536Z,9.80
2018-01-24T10:43:51.352Z,9.88
2018-01-24T10:44:57.763Z,9.82
2018-01-24T10:46:04.294Z,9.86
2018-01-24T10:47:11.909Z,9.92
2018-01-24T10:48:20.631Z,9.90
2018-01-24T10:49:27.995Z,9.83
2018-01-24T10:50:34.712Z,9.85
2018-01-24T10:51:41.873Z,9.89
2018-01-24T10:52:51.160Z,9.94
2018-01-24T10:53:58.749Z,9.98
2018-01-24T10:55:06.807Z,9.96
2018-01-24T10:56:13.892Z,9.96
2018-01-24T10:57:20.862Z,9.93
2018-01-24T10:58:28.085Z,9.89
2018-01-24T10:59:35.123Z,9.89
2018-01-24T11:00:43.372Z,9.96
2018-01-24T11:01:51.129Z,10.03
2018-01-24T11:02:58.365Z,10.08
2018-01-24T11:04:05.621Z,10.07
2018-01-24T11:05:12.636Z,10.05
2018-01-24T11:06:18.970Z,10.13
2018-01-24T11:07:25.038Z,10.14
2018-01-24T11:08:30.631Z,10.14
2018-01-24T11:09:37.018Z,10.19
2018-01-24T11:10:43.312Z,10.17
2018-01-24T11:11:49.331Z,10.10
2018-01-24T11:12:55.631Z,10.14
2018-01-24T11:14:01.663Z,10.17
2018-01-24T11:15:07.951Z,10.18
2018-01-24T11:16:14.244Z,10.21
2018-01-24T11:17:20.457Z,10.34
2018-01-24T11:18:26.814Z,10.33
2018-01-24T11:19:33.011Z,10.25
2018-01-24T11:20:39.638Z,10.29
2018-01-24T11:21:45.466Z,10.28
2018-01-24T11:22:52.258Z,10.34
2018-01-24T11:23:58.556Z,10.34
2018-01-24T11:25:04.861Z,10.36
2018-01-24T11:26:12.212Z,10.33
2018-01-24T11:27:18.367Z,10.27
2018-01-24T11:28:24.718Z,10.30
2018-01-24T11:29:31.220Z,10.33
2018-01-24T11:30:37.587Z,10.39
2018-01-24T11:31:44.071Z,10.47
2018-01-24T11:32:50.673Z,10.62
2018-01-24T11:33:57.555Z,10.77
2018-01-24T11:35:03.832Z,10.79
2018-01-24T11:36:09.969Z,10.77
2018-01-24T11:37:17.993Z,10.78
2018-01-24T11:38:25.123Z,10.72
2018-01-24T11:39:31.495Z,10.75
2018-01-24T11:40:37.685Z,10.75
2018-01-24T11:41:49.007Z,10.75
2018-01-24T11:42:55.251Z,10.73
2018-01-24T11:44:01.682Z,10.72
2018-01-24T11:45:08.007Z,10.65
2018-01-24T11:46:14.580Z,10.67
2018-01-24T11:47:21.139Z,10.64
2018-01-24T11:48:27.536Z,10.63
2018-01-24T11:49:34.587Z,10.64
2018-01-24T11:50:41.463Z,10.55
2018-01-24T11:51:48.709Z,10.61
2018-01-24T11:52:55.044Z,10.77
2018-01-24T11:54:01.603Z,10.73
2018-01-24T11:55:08.017Z,10.78
2018-01-24T11:56:15.403Z,10.89
2018-01-24T11:57:22.238Z,10.89
2018-01-24T11:58:28.637Z,11.01
2018-01-24T11:59:35.073Z,11.04
2018-01-24T12:00:43.558Z,11.08
2018-01-24T12:01:50.432Z,11.15
2018-01-24T12:02:57.098Z,11.15
2018-01-24T12:04:03.779Z,11.11
2018-01-24T12:05:10.011Z,10.99
2018-01-24T12:06:15.988Z,11.02
2018-01-24T12:07:22.647Z,11.01
2018-01-24T12:08:29.331Z,10.96
2018-01-24T12:09:35.844Z,10.98
2018-01-24T12:10:42.400Z,10.93
2018-01-24T12:11:48.564Z,10.84
2018-01-24T12:12:54.828Z,10.80
2018-01-24T12:14:01.936Z,10.86
2018-01-24T12:15:08.452Z,10.72
2018-01-24T12:16:15.445Z,10.75
2018-01-24T12:17:22.477Z,10.68
2018-01-24T12:18:28.691Z,10.65
2018-01-24T12:19:35.867Z,10.69
2018-01-24T12:20:42.174Z,10.55
2018-01-24T12:21:48.632Z,10.55
2018-01-24T12:22:54.886Z,10.49
2018-01-24T12:24:01.496Z,10.49
2018-01-24T12:25:07.753Z,10.50
2018-01-24T12:26:14.101Z,10.52
2018-01-24T12:27:20.352Z,10.59
2018-01-24T12:28:26.707Z,10.60
2018-01-24T12:29:32.622Z,10.60
2018-01-24T12:30:38.747Z,10.54
2018-01-24T12:31:45.140Z,10.62
2018-01-24T12:32:51.362Z,10.58
2018-01-24T12:33:57.545Z,10.57
2018-01-24T12:35:04.392Z,10.60
2018-01-24T12:36:12.710Z,10.63
2018-01-24T12:37:22.635Z,10.65
2018-01-24T12:38:30.642Z,10.70
2018-01-24T12:39:37.846Z,10.68
2018-01-24T12:40:45.606Z,10.71
2018-01-24T12:41:53.152Z,10.70
2018-01-24T12:42:59.647Z,10.71
2018-01-24T12:44:06.895Z,10.75
2018-01-24T12:45:13.277Z,10.79
2018-01-24T12:46:22.477Z,10.74
2018-01-24T12:47:29.734Z,10.71
2018-01-24T12:48:37.741Z,10.70
2018-01-24T12:49:44.364Z,10.74
2018-01-24T12:50:55.699Z,10.76
2018-01-24T12:52:01.934Z,10.76
2018-01-24T12:53:08.344Z,10.75
2018-01-24T12:54:14.866Z,10.76
2018-01-24T12:55:21.332Z,10.72
2018-01-24T12:56:27.677Z,10.78
2018-01-24T12:57:33.870Z,10.82
2018-01-24T12:58:40.082Z,10.88
2018-01-24T12:59:46.327Z,10.92
2018-01-24T13:00:52.885Z,10.98
2018-01-24T13:01:59.079Z,10.95
2018-01-24T13:03:05.235Z,10.93
2018-01-24T13:04:11.492Z,10.93
2018-01-24T13:05:18.576Z,10.90
2018-01-24T13:06:24.736Z,10.98
2018-01-24T13:07:31.043Z,10.96
2018-01-24T13:08:37.309Z,10.88
2018-01-24T13:09:43.595Z,10.91
2018-01-24T13:10:49.952Z,10.96
2018-01-24T13:11:56.511Z,10.98
2018-01-24T13:13:02.800Z,11.01
2018-01-24T13:14:08.619Z,11.00
2018-01-24T13:15:14.811Z,11.07
2018-01-24T13:16:21.458Z,11.08
2018-01-24T13:17:27.750Z,11.09
2018-01-24T13:18:35.090Z,11.07
2018-01-24T13:19:41.232Z,11.05
2018-01-24T13:20:47.480Z,11.07
2018-01-24T13:21:53.685Z,11.09
2018-01-24T13:23:00.112Z,11.12
2018-01-24T13:24:06.467Z,11.11
2018-01-24T13:25:12.828Z,11.05
2018-01-24T13:26:19.576Z,11.00
2018-01-24T13:27:25.791Z,10.94
2018-01-24T13:28:33.164Z,10.93
2018-01-24T13:29:40.717Z,10.94
2018-01-24T13:30:47.160Z,10.87
2018-01-24T13:31:53.371Z,10.91
2018-01-24T13:33:00.098Z,10.90
2018-01-24T13:34:07.261Z,10.90
2018-01-24T13:35:15.110Z,10.90
2018-01-24T13:36:22.042Z,10.94
2018-01-24T13:37:29.195Z,10.91
2018-01-24T13:38:36.377Z,10.90
2018-01-24T13:39:43.405Z,10.95
2018-01-24T13:40:49.937Z,10.97
2018-01-24T13:41:56.200Z,11.00
2018-01-24T13:43:02.644Z,11.00
2018-01-24T13:44:08.966Z,10.94
2018-01-24T13:45:15.331Z,10.97
2018-01-24T13:46:21.815Z,10.99
2018-01-24T13:47:28.451Z,11.04
2018-01-24T13:48:35.308Z,11.12
2018-01-24T13:49:41.892Z,11.03
2018-01-24T13:50:49.747Z,11.05
2018-01-24T13:51:57.334Z,11.05
2018-01-24T13:53:03.776Z,10.81
2018-01-24T13:54:10.322Z,10.85
2018-01-24T13:55:18.677Z,10.89
2018-01-24T13:56:26.640Z,10.94
2018-01-24T13:57:33.657Z,10.97
2018-01-24T13:58:41.080Z,11.00
2018-01-24T13:59:48.555Z,10.87
2018-01-24T14:00:54.381Z,10.86
2018-01-24T14:02:02.637Z,10.93
2018-01-24T14:03:08.905Z,10.82
2018-01-24T14:04:16.506Z,10.87
2018-01-24T14:05:23.182Z,10.84
2018-01-24T14:06:29.342Z,10.81
2018-01-24T14:07:36.602Z,10.73
2018-01-24T14:08:43.028Z,10.74
2018-01-24T14:09:50.501Z,10.75
2018-01-24T14:10:57.540Z,10.75
2018-01-24T14:12:04.490Z,10.73
2018-01-24T14:13:10.682Z,10.77
2018-01-24T14:14:18.157Z,10.74
2018-01-24T14:15:25.208Z,10.59
2018-01-24T14:16:31.737Z,10.54
2018-01-24T14:17:37.952Z,10.49
2018-01-24T14:18:44.503Z,10.55
2018-01-24T14:19:50.947Z,10.60
2018-01-24T14:20:57.268Z,10.51
2018-01-24T14:22:03.566Z,10.52
2018-01-24T14:23:09.761Z,10.56
2018-01-24T14:24:15.986Z,10.59
2018-01-24T14:25:22.196Z,10.61
2018-01-24T14:26:28.416Z,10.66
2018-01-24T14:27:34.584Z,10.66
2018-01-24T14:28:41.517Z,10.75
2018-01-24T14:29:47.662Z,10.70
2018-01-24T14:30:53.831Z,10.72
2018-01-24T14:32:03.310Z,10.70
2018-01-24T14:33:11.396Z,10.74
2018-01-24T14:34:18.865Z,10.82
2018-01-24T14:35:27.679Z,10.93
2018-01-24T14:36:34.351Z,10.80
2018-01-24T14:37:40.659Z,10.80
2018-01-24T14:38:47.030Z,10.86
2018-01-24T14:39:53.463Z,10.84
2018-01-24T14:40:59.753Z,10.88
2018-01-24T14:42:05.877Z,10.96
2018-01-24T14:43:11.915Z,10.91
2018-01-24T14:44:18.833Z,10.89
2018-01-24T14:45:25.429Z,10.93
2018-01-24T14:46:35.175Z,10.85